createdAt,value
2022-11-28T00:00:20.256Z,2.4
2022-11-28T00:01:19.597Z,2.4
2022-11-28T00:02:21.295Z,2
2022-11-28T00:03:20.843Z,2.4
2022-11-28T00:04:20.671Z,2.4
2022-11-28T00:05:20.311Z,2.4
2022-11-28T00:06:21.032Z,2.4
2022-11-28T00:07:20.202Z,2.4
2022-11-28T00:08:20.300Z,2.4
2022-11-28T00:09:19.756Z,2.4
2022-11-28T00:10:20.149Z,2
2022-11-28T00:11:19.911Z,2.4
2022-11-28T00:12:20.298Z,2.4
2022-11-28T00:13:20.372Z,2.4
2022-11-28T00:14:19.987Z,2.4
2022-11-28T00:15:20.314Z,2.4
2022-11-28T00:16:20.066Z,2.4
2022-11-28T00:17:20.000Z,2.4
2022-11-28T00:18:20.288Z,2.4
2022-11-28T00:19:19.770Z,2.4
2022-11-28T00:20:20.152Z,2.4
2022-11-28T00:21:20.504Z,2.4
2022-11-28T00:22:20.029Z,2.4
2022-11-28T00:23:20.478Z,2.4
2022-11-28T00:24:20.365Z,2.4
2022-11-28T00:25:20.295Z,2.4
2022-11-28T00:26:20.554Z,2.5
2022-11-28T00:27:19.986Z,2.5
2022-11-28T00:28:20.459Z,2.5
2022-11-28T00:29:20.210Z,2.5
2022-11-28T00:30:19.965Z,2.5
2022-11-28T00:31:20.481Z,2.5
2022-11-28T00:32:20.784Z,2
2022-11-28T00:33:18.983Z,2
2022-11-28T00:34:20.493Z,2.5
2022-11-28T00:35:18.761Z,2.5
2022-11-28T00:36:20.078Z,2.5
2022-11-28T00:37:19.928Z,2.5
2022-11-28T00:38:20.509Z,2.5
2022-11-28T00:39:20.029Z,2.5
2022-11-28T00:40:20.349Z,2.5
2022-11-28T00:41:19.852Z,2.5
2022-11-28T00:42:20.218Z,2.5
2022-11-28T00:43:20.002Z,2.5
2022-11-28T00:44:20.391Z,2.5
2022-11-28T00:45:19.878Z,2.5
2022-11-28T00:46:26.087Z,2
2022-11-28T00:47:19.826Z,2.5
2022-11-28T00:48:19.625Z,2.5
2022-11-28T00:49:20.183Z,2.5
2022-11-28T00:50:19.883Z,2.5
2022-11-28T00:51:19.667Z,2.5
2022-11-28T00:52:19.979Z,2.5
2022-11-28T00:53:20.259Z,2.5
2022-11-28T00:54:19.965Z,2.5
2022-11-28T00:55:18.760Z,2.5
2022-11-28T00:56:20.187Z,2.5
2022-11-28T00:57:18.826Z,2.5
2022-11-28T00:58:18.902Z,2.5
2022-11-28T00:59:20.254Z,2.4
2022-11-28T01:00:19.667Z,2.5
2022-11-28T01:01:20.382Z,2.5
2022-11-28T01:02:20.593Z,2.5
2022-11-28T01:03:20.752Z,2.5
2022-11-28T01:04:19.757Z,2.5
2022-11-28T01:05:20.434Z,2.5
2022-11-28T01:06:19.946Z,2.5
2022-11-28T01:07:20.705Z,2.5
2022-11-28T01:08:19.743Z,2
2022-11-28T01:09:20.175Z,2
2022-11-28T01:10:20.668Z,2.5
2022-11-28T01:11:19.970Z,2.5
2022-11-28T01:12:20.330Z,2.5
2022-11-28T01:13:19.788Z,2.5
2022-11-28T01:14:20.101Z,2.5
2022-11-28T01:15:20.680Z,2.5
2022-11-28T01:16:20.745Z,2.5
2022-11-28T01:17:19.716Z,2.5
2022-11-28T01:18:20.049Z,2.5
2022-11-28T01:19:20.638Z,2
2022-11-28T01:20:19.969Z,2.5
2022-11-28T01:21:20.360Z,2.5
2022-11-28T01:22:19.736Z,2.5
2022-11-28T01:23:19.179Z,2.5
2022-11-28T01:24:20.584Z,2.5
2022-11-28T01:25:20.424Z,2.5
2022-11-28T01:26:19.874Z,2.5
2022-11-28T01:27:20.079Z,2.5
2022-11-28T01:28:19.817Z,2.5
2022-11-28T01:29:19.936Z,2.5
2022-11-28T01:30:20.127Z,2.4
2022-11-28T01:31:20.316Z,2.4
2022-11-28T01:32:19.887Z,2.4
2022-11-28T01:33:20.362Z,2.4
2022-11-28T01:34:20.170Z,2.4
2022-11-28T01:35:20.706Z,2.4
2022-11-28T01:36:19.190Z,2.4
2022-11-28T01:37:20.374Z,2
2022-11-28T01:38:20.686Z,2
2022-11-28T01:39:20.152Z,2.4
2022-11-28T01:40:20.503Z,2.4
2022-11-28T01:41:19.822Z,2.4
2022-11-28T01:42:20.004Z,2.4
2022-11-28T01:43:20.141Z,2
2022-11-28T01:44:20.072Z,2
2022-11-28T01:45:20.526Z,2.4
2022-11-28T01:46:20.399Z,2.4
2022-11-28T01:47:20.426Z,2.4
2022-11-28T01:48:20.452Z,2.4
2022-11-28T01:49:20.002Z,2.4
2022-11-28T01:50:20.389Z,2.4
2022-11-28T01:51:19.935Z,2.4
2022-11-28T01:52:20.324Z,2.4
2022-11-28T01:53:19.888Z,2.4
2022-11-28T01:54:20.266Z,2.4
2022-11-28T01:55:19.983Z,2
2022-11-28T01:56:20.171Z,2.4
2022-11-28T01:57:20.502Z,2.4
2022-11-28T01:58:19.474Z,2.4
2022-11-28T01:59:20.360Z,2.4
2022-11-28T02:00:19.066Z,2.4
2022-11-28T02:01:20.534Z,2.4
2022-11-28T02:02:20.894Z,2.4
2022-11-28T02:03:20.018Z,2.4
2022-11-28T02:04:20.065Z,2.4
2022-11-28T02:05:20.421Z,2.4
2022-11-28T02:06:19.552Z,2.4
2022-11-28T02:07:21.102Z,2.4
2022-11-28T02:08:20.090Z,2.4
2022-11-28T02:09:20.314Z,2.4
2022-11-28T02:10:19.839Z,2.4
2022-11-28T02:11:20.192Z,2.4
2022-11-28T02:12:18.850Z,2.4
2022-11-28T02:13:19.981Z,2.4
2022-11-28T02:14:20.489Z,2.4
2022-11-28T02:15:20.451Z,2.4
2022-11-28T02:16:20.448Z,2.4
2022-11-28T02:17:20.363Z,2.4
2022-11-28T02:18:19.871Z,2.4
2022-11-28T02:19:20.340Z,2.4
2022-11-28T02:20:20.226Z,2.4
2022-11-28T02:21:19.704Z,2.4
2022-11-28T02:22:20.586Z,2.4
2022-11-28T02:23:19.831Z,2.4
2022-11-28T02:24:20.181Z,2.4
2022-11-28T02:25:20.520Z,2.4
2022-11-28T02:26:20.047Z,2.4
2022-11-28T02:27:20.463Z,2.4
2022-11-28T02:28:19.748Z,2.4
2022-11-28T02:29:20.281Z,2.4
2022-11-28T02:30:19.877Z,2.4
2022-11-28T02:31:20.103Z,2.4
2022-11-28T02:32:18.865Z,2.4
2022-11-28T02:33:19.398Z,2.4
2022-11-28T02:34:18.766Z,2.4
2022-11-28T02:35:20.044Z,2.4
2022-11-28T02:36:20.289Z,2.4
2022-11-28T02:37:19.817Z,2.4
2022-11-28T02:38:20.146Z,2
2022-11-28T02:39:18.926Z,2.4
2022-11-28T02:40:20.312Z,2.4
2022-11-28T02:41:19.802Z,2.4
2022-11-28T02:42:20.233Z,2.4
2022-11-28T02:43:19.629Z,2.4
2022-11-28T02:44:19.887Z,2.4
2022-11-28T02:45:20.193Z,2.4
2022-11-28T02:46:20.594Z,2.4
2022-11-28T02:47:19.842Z,2.4
2022-11-28T02:48:20.430Z,2.4
2022-11-28T02:49:19.882Z,2.4
2022-11-28T02:50:20.346Z,2.4
2022-11-28T02:51:19.763Z,2.4
2022-11-28T02:52:20.225Z,2.4
2022-11-28T02:53:19.619Z,2.4
2022-11-28T02:54:20.136Z,2.4
2022-11-28T02:55:20.122Z,2.4
2022-11-28T02:56:20.112Z,2
2022-11-28T02:57:20.402Z,2.4
2022-11-28T02:58:20.160Z,2.4
2022-11-28T02:59:20.584Z,2.4
2022-11-28T03:00:22.057Z,2.4
2022-11-28T03:01:20.246Z,2.4
2022-11-28T03:02:19.516Z,2.4
2022-11-28T03:03:20.537Z,2.4
2022-11-28T03:04:20.262Z,2.4
2022-11-28T03:05:20.072Z,2
2022-11-28T03:06:20.497Z,2.4
2022-11-28T03:07:19.931Z,2.4
2022-11-28T03:08:20.063Z,2.4
2022-11-28T03:09:20.186Z,2.4
2022-11-28T03:10:20.474Z,2.4
2022-11-28T03:11:20.204Z,2.4
2022-11-28T03:12:19.768Z,2.4
2022-11-28T03:13:20.668Z,2.4
2022-11-28T03:14:20.196Z,2.4
2022-11-28T03:15:19.967Z,2.4
2022-11-28T03:16:20.203Z,2.4
2022-11-28T03:17:20.396Z,2.4
2022-11-28T03:18:20.591Z,2.4
2022-11-28T03:19:19.789Z,2.4
2022-11-28T03:20:20.440Z,2.4
2022-11-28T03:21:19.873Z,2.4
2022-11-28T03:22:20.027Z,2.4
2022-11-28T03:23:20.381Z,2.4
2022-11-28T03:24:20.022Z,2.4
2022-11-28T03:25:20.500Z,2.4
2022-11-28T03:26:19.775Z,2.4
2022-11-28T03:27:20.334Z,2.4
2022-11-28T03:28:20.344Z,2.4
2022-11-28T03:29:19.814Z,2
2022-11-28T03:30:20.163Z,2
2022-11-28T03:31:20.071Z,2.4
2022-11-28T03:32:20.519Z,2.4
2022-11-28T03:33:19.852Z,2
2022-11-28T03:34:20.452Z,2
2022-11-28T03:35:19.735Z,2.4
2022-11-28T03:36:20.168Z,2.4
2022-11-28T03:37:20.669Z,2.4
2022-11-28T03:38:19.509Z,2.4
2022-11-28T03:39:19.901Z,2.4
2022-11-28T03:40:19.727Z,2.4
2022-11-28T03:41:20.143Z,2.4
2022-11-28T03:42:20.160Z,2.4
2022-11-28T03:43:19.935Z,2.4
2022-11-28T03:44:20.273Z,2.4
2022-11-28T03:45:20.633Z,2
2022-11-28T03:46:19.982Z,2.4
2022-11-28T03:47:19.346Z,2.4
2022-11-28T03:48:20.611Z,2.4
2022-11-28T03:49:20.590Z,2.4
2022-11-28T03:50:20.035Z,2.4
2022-11-28T03:51:18.768Z,2.4
2022-11-28T03:52:20.217Z,2.4
2022-11-28T03:53:20.090Z,2.4
2022-11-28T03:54:20.579Z,2
2022-11-28T03:55:20.977Z,2
2022-11-28T03:56:20.471Z,2.4
2022-11-28T03:57:19.902Z,2.4
2022-11-28T03:58:20.324Z,2.4
2022-11-28T03:59:20.070Z,2.4
2022-11-28T04:00:20.370Z,2.4
2022-11-28T04:01:20.546Z,2.4
2022-11-28T04:02:19.764Z,2.4
2022-11-28T04:03:20.820Z,2.4
2022-11-28T04:04:19.180Z,2.4
2022-11-28T04:05:20.615Z,2.4
2022-11-28T04:06:20.580Z,2.4
2022-11-28T04:07:20.671Z,2.4
2022-11-28T04:08:20.642Z,2.3
2022-11-28T04:09:20.509Z,2.3
2022-11-28T04:10:20.281Z,2.3
2022-11-28T04:11:20.741Z,2.3
2022-11-28T04:12:18.890Z,2.3
2022-11-28T04:13:19.779Z,2.3
2022-11-28T04:14:20.053Z,2.3
2022-11-28T04:15:20.675Z,2.3
2022-11-28T04:16:18.962Z,2.3
2022-11-28T04:17:20.205Z,2.3
2022-11-28T04:18:19.819Z,2.2
2022-11-28T04:19:20.458Z,2.2
2022-11-28T04:20:20.270Z,2.2
2022-11-28T04:21:20.001Z,2.2
2022-11-28T04:22:20.200Z,2.2
2022-11-28T04:23:20.425Z,2.2
2022-11-28T04:24:20.000Z,2.2
2022-11-28T04:25:19.738Z,2.2
2022-11-28T04:26:20.195Z,2.2
2022-11-28T04:27:20.274Z,2.2
2022-11-28T04:28:19.809Z,2.2
2022-11-28T04:29:20.121Z,2.2
2022-11-28T04:30:20.570Z,2.2
2022-11-28T04:31:21.076Z,2.2
2022-11-28T04:32:18.971Z,2.2
2022-11-28T04:33:20.268Z,2.2
2022-11-28T04:34:20.549Z,2.2
2022-11-28T04:35:20.237Z,2.2
2022-11-28T04:36:20.309Z,2
2022-11-28T04:37:20.348Z,2.2
2022-11-28T04:38:20.538Z,2.2
2022-11-28T04:39:20.555Z,2.2
2022-11-28T04:40:20.337Z,2
2022-11-28T04:41:19.043Z,2.2
2022-11-28T04:42:19.854Z,2.2
2022-11-28T04:43:19.863Z,2.2
2022-11-28T04:44:20.197Z,2.2
2022-11-28T04:45:20.580Z,2.2
2022-11-28T04:46:20.478Z,2.2
2022-11-28T04:47:20.619Z,2.2
2022-11-28T04:48:20.530Z,2.2
2022-11-28T04:49:19.858Z,2.2
2022-11-28T04:50:20.273Z,2.2
2022-11-28T04:51:20.678Z,2.2
2022-11-28T04:52:20.457Z,2.2
2022-11-28T04:53:20.408Z,2.2
2022-11-28T04:54:20.176Z,2.2
2022-11-28T04:55:19.256Z,2.2
2022-11-28T04:56:20.406Z,2.2
2022-11-28T04:57:19.801Z,2.2
2022-11-28T04:58:20.381Z,2.2
2022-11-28T04:59:19.892Z,2.2
2022-11-28T05:00:20.107Z,2.2
2022-11-28T05:01:19.580Z,2.2
2022-11-28T05:02:19.269Z,2.2
2022-11-28T05:03:18.967Z,2.2
2022-11-28T05:04:19.991Z,2
2022-11-28T05:05:20.053Z,2
2022-11-28T05:06:20.735Z,2.2
2022-11-28T05:07:20.306Z,2.2
2022-11-28T05:08:19.987Z,2.2
2022-11-28T05:09:19.719Z,2.2
2022-11-28T05:10:20.580Z,2.2
2022-11-28T05:11:20.606Z,2.2
2022-11-28T05:12:19.919Z,2.2
2022-11-28T05:13:20.487Z,2.2
2022-11-28T05:14:19.996Z,2.2
2022-11-28T05:15:20.379Z,2
2022-11-28T05:16:20.975Z,2
2022-11-28T05:17:20.073Z,2.3
2022-11-28T05:18:19.809Z,2.2
2022-11-28T05:19:20.255Z,2.2
2022-11-28T05:20:20.517Z,2.2
2022-11-28T05:21:19.941Z,2.3
2022-11-28T05:22:19.428Z,2.3
2022-11-28T05:23:19.942Z,2.3
2022-11-28T05:24:19.771Z,2.2
2022-11-28T05:25:20.298Z,2.2
2022-11-28T05:26:20.778Z,2.3
2022-11-28T05:27:19.921Z,2.2
2022-11-28T05:28:20.369Z,2.3
2022-11-28T05:29:20.003Z,2.2
2022-11-28T05:30:20.644Z,2.2
2022-11-28T05:31:20.725Z,2.2
2022-11-28T05:32:20.224Z,2
2022-11-28T05:33:19.283Z,2.2
2022-11-28T05:34:20.266Z,2.2
2022-11-28T05:35:20.465Z,2.2
2022-11-28T05:36:20.700Z,2.2
2022-11-28T05:37:20.313Z,2.2
2022-11-28T05:38:19.665Z,2.2
2022-11-28T05:39:20.385Z,2
2022-11-28T05:40:20.640Z,2
2022-11-28T05:41:20.102Z,2
2022-11-28T05:42:20.620Z,2
2022-11-28T05:43:19.920Z,2
2022-11-28T05:44:26.962Z,2.2
2022-11-28T05:45:19.740Z,2.2
2022-11-28T05:46:20.871Z,2.2
2022-11-28T05:47:19.789Z,2.2
2022-11-28T05:48:19.788Z,2.2
2022-11-28T05:49:19.619Z,2.2
2022-11-28T05:50:20.579Z,2.2
2022-11-28T05:51:20.073Z,2
2022-11-28T05:52:20.043Z,2.2
2022-11-28T05:53:20.436Z,2.2
2022-11-28T05:54:20.752Z,2
2022-11-28T05:55:20.257Z,2
2022-11-28T05:56:20.511Z,2.2
2022-11-28T05:57:19.653Z,2.2
2022-11-28T05:58:20.152Z,2
2022-11-28T05:59:20.314Z,2
2022-11-28T06:00:20.141Z,2
2022-11-28T06:01:20.110Z,2.2
2022-11-28T06:02:20.858Z,2
2022-11-28T06:03:20.193Z,2
2022-11-28T06:04:20.047Z,2
2022-11-28T06:05:46.134Z,2
2022-11-28T06:06:20.170Z,2.2
2022-11-28T06:07:20.705Z,2.2
2022-11-28T06:08:19.854Z,2.2
2022-11-28T06:09:25.756Z,2.2
2022-11-28T06:10:20.301Z,2.2
2022-11-28T06:11:20.110Z,2.2
2022-11-28T06:12:19.810Z,2.2
2022-11-28T06:13:20.019Z,2.2
2022-11-28T06:14:20.435Z,2.2
2022-11-28T06:15:19.827Z,2.2
2022-11-28T06:16:19.082Z,2.2
2022-11-28T06:17:20.661Z,2.2
2022-11-28T06:18:20.046Z,2.2
2022-11-28T06:19:20.661Z,2.2
2022-11-28T06:20:19.994Z,2.2
2022-11-28T06:21:20.268Z,2.2
2022-11-28T06:22:20.280Z,2.2
2022-11-28T06:23:20.730Z,2.2
2022-11-28T06:24:20.298Z,2.1
2022-11-28T06:25:20.612Z,2
2022-11-28T06:26:20.093Z,2.2
2022-11-28T06:27:19.489Z,2.2
2022-11-28T06:28:20.636Z,2.2
2022-11-28T06:29:19.986Z,2.2
2022-11-28T06:30:20.648Z,2.2
2022-11-28T06:31:20.779Z,2.1
2022-11-28T06:32:26.057Z,2.1
2022-11-28T06:33:19.942Z,2.1
2022-11-28T06:34:20.420Z,2.1
2022-11-28T06:35:19.857Z,2.1
2022-11-28T06:36:20.224Z,2.1
2022-11-28T06:37:20.567Z,2.1
2022-11-28T06:38:20.047Z,2.1
2022-11-28T06:39:20.472Z,2.1
2022-11-28T06:40:20.291Z,2
2022-11-28T06:41:20.718Z,2
2022-11-28T06:42:20.198Z,2
2022-11-28T06:43:20.588Z,2
2022-11-28T06:44:20.497Z,2.1
2022-11-28T06:45:20.370Z,2.1
2022-11-28T06:46:21.434Z,2.1
2022-11-28T06:47:20.252Z,2.1
2022-11-28T06:48:19.067Z,2.1
2022-11-28T06:49:19.898Z,2.1
2022-11-28T06:50:20.232Z,2.2
2022-11-28T06:51:20.134Z,2.2
2022-11-28T06:52:20.607Z,2.1
2022-11-28T06:53:19.798Z,2.1
2022-11-28T06:54:20.517Z,2.1
2022-11-28T06:55:20.355Z,2.1
2022-11-28T06:56:20.590Z,2.2
2022-11-28T06:57:20.293Z,2.2
2022-11-28T06:58:20.540Z,2.1
2022-11-28T06:59:19.963Z,2.2
2022-11-28T07:00:19.342Z,2.2
2022-11-28T07:01:20.321Z,2
2022-11-28T07:02:19.708Z,2.2
2022-11-28T07:03:20.638Z,2.2
2022-11-28T07:04:20.484Z,2.2
2022-11-28T07:05:19.845Z,2.2
2022-11-28T07:06:20.698Z,2.2
2022-11-28T07:07:21.240Z,2.2
2022-11-28T07:08:20.716Z,2.2
2022-11-28T07:09:19.879Z,2.2
2022-11-28T07:10:20.364Z,2.2
2022-11-28T07:11:20.589Z,2.2
2022-11-28T07:12:20.368Z,2
2022-11-28T07:13:19.661Z,2.2
2022-11-28T07:14:20.085Z,2.3
2022-11-28T07:15:19.591Z,2.3
2022-11-28T07:16:20.754Z,2.2
2022-11-28T07:17:20.457Z,2.3
2022-11-28T07:18:20.565Z,2.3
2022-11-28T07:19:20.365Z,2.3
2022-11-28T07:20:20.166Z,2.4
2022-11-28T07:21:20.433Z,2.3
2022-11-28T07:22:19.760Z,2.3
2022-11-28T07:23:20.242Z,2.4
2022-11-28T07:24:20.386Z,2.3
2022-11-28T07:25:20.669Z,2.3
2022-11-28T07:26:19.972Z,2.3
2022-11-28T07:27:20.479Z,2.3
2022-11-28T07:28:26.041Z,2.3
2022-11-28T07:29:20.182Z,2.4
2022-11-28T07:30:20.123Z,2.4
2022-11-28T07:31:20.545Z,2.4
2022-11-28T07:32:20.783Z,2.4
2022-11-28T07:33:20.466Z,2.4
2022-11-28T07:34:20.233Z,2.4
2022-11-28T07:35:20.548Z,2.4
2022-11-28T07:36:20.641Z,2.4
2022-11-28T07:37:19.056Z,2.4
2022-11-28T07:38:20.502Z,2.4
2022-11-28T07:39:19.205Z,2.4
2022-11-28T07:40:20.053Z,2.4
2022-11-28T07:41:26.693Z,2.4
2022-11-28T07:42:20.630Z,2.4
2022-11-28T07:43:20.141Z,2.5
2022-11-28T07:44:19.919Z,2.5
2022-11-28T07:45:19.785Z,2.4
2022-11-28T07:46:20.028Z,2.5
2022-11-28T07:47:19.732Z,2.5
2022-11-28T07:48:19.807Z,2
2022-11-28T07:49:20.472Z,2
2022-11-28T07:50:20.183Z,2.5
2022-11-28T07:51:20.570Z,2.6
2022-11-28T07:52:18.901Z,2.6
2022-11-28T07:53:20.611Z,2.6
2022-11-28T07:54:20.411Z,2
2022-11-28T07:55:19.864Z,2.6
2022-11-28T07:56:20.232Z,2.6
2022-11-28T07:57:20.330Z,2.6
2022-11-28T07:58:20.717Z,2.6
2022-11-28T07:59:20.682Z,2
2022-11-28T08:00:20.719Z,2.6
2022-11-28T08:01:20.075Z,2.6
2022-11-28T08:02:20.725Z,2.6
2022-11-28T08:03:19.861Z,2
2022-11-28T08:04:20.442Z,2.7
2022-11-28T08:05:20.707Z,2.7
2022-11-28T08:06:20.125Z,2
2022-11-28T08:07:20.176Z,2.7
2022-11-28T08:08:20.403Z,2.7
2022-11-28T08:09:19.849Z,2.8
2022-11-28T08:10:20.429Z,2.8
2022-11-28T08:11:19.870Z,2
2022-11-28T08:12:20.402Z,2.8
2022-11-28T08:13:20.750Z,2.8
2022-11-28T08:14:20.138Z,2
2022-11-28T08:15:20.480Z,2.8
2022-11-28T08:16:20.334Z,2.8
2022-11-28T08:17:20.069Z,2.8
2022-11-28T08:18:20.388Z,2.8
2022-11-28T08:19:24.458Z,2.8
2022-11-28T08:20:20.778Z,2.8
2022-11-28T08:21:20.417Z,2.9
2022-11-28T08:22:20.307Z,2.9
2022-11-28T08:23:19.811Z,2.9
2022-11-28T08:24:20.449Z,2.9
2022-11-28T08:25:18.694Z,2.9
2022-11-28T08:26:20.127Z,3
2022-11-28T08:27:20.576Z,3
2022-11-28T08:28:20.527Z,3
2022-11-28T08:29:20.008Z,3
2022-11-28T08:30:20.468Z,3
2022-11-28T08:31:20.578Z,3
2022-11-28T08:32:20.700Z,3
2022-11-28T08:33:19.905Z,3
2022-11-28T08:34:20.188Z,3.1
2022-11-28T08:35:19.934Z,3.1
2022-11-28T08:36:19.855Z,3
2022-11-28T08:37:20.340Z,3
2022-11-28T08:38:20.586Z,3.1
2022-11-28T08:39:28.695Z,3.1
2022-11-28T08:40:20.010Z,3.1
2022-11-28T08:41:20.725Z,3.1
2022-11-28T08:42:19.870Z,3.1
2022-11-28T08:43:20.233Z,3.1
2022-11-28T08:44:19.830Z,3.1
2022-11-28T08:45:20.242Z,3.1
2022-11-28T08:46:20.903Z,3.1
2022-11-28T08:47:20.189Z,3.1
2022-11-28T08:48:20.706Z,3.1
2022-11-28T08:49:20.689Z,3.1
2022-11-28T08:50:20.068Z,3.1
2022-11-28T08:51:20.246Z,3.1
2022-11-28T08:52:20.135Z,3.2
2022-11-28T08:53:22.832Z,3.2
2022-11-28T08:54:20.283Z,3.2
2022-11-28T08:55:32.012Z,3.2
2022-11-28T08:56:19.774Z,3.2
2022-11-28T08:57:20.425Z,3.2
2022-11-28T08:58:20.213Z,3.2
2022-11-28T08:59:20.129Z,3.2
2022-11-28T09:00:20.463Z,3
2022-11-28T09:01:20.922Z,3.2
2022-11-28T09:02:27.770Z,3.3
2022-11-28T09:03:20.450Z,3.3
2022-11-28T09:04:20.978Z,3.3
2022-11-28T09:05:20.028Z,3.3
2022-11-28T09:06:20.066Z,3.3
2022-11-28T09:07:20.142Z,3.2
2022-11-28T09:08:20.736Z,3.2
2022-11-28T09:09:20.140Z,3.3
2022-11-28T09:10:20.644Z,3
2022-11-28T09:11:20.560Z,3
2022-11-28T09:12:20.455Z,3.3
2022-11-28T09:13:20.102Z,3
2022-11-28T09:14:20.647Z,3.2
2022-11-28T09:15:20.252Z,3.2
2022-11-28T09:16:20.209Z,3.3
2022-11-28T09:17:20.282Z,3.3
2022-11-28T09:18:20.328Z,3.3
2022-11-28T09:19:19.868Z,3.4
2022-11-28T09:20:20.628Z,3.3
2022-11-28T09:21:20.107Z,3.3
2022-11-28T09:22:20.398Z,3.3
2022-11-28T09:23:19.822Z,3.3
2022-11-28T09:24:20.305Z,3.4
2022-11-28T09:25:20.756Z,3.4
2022-11-28T09:26:20.127Z,3.3
2022-11-28T09:27:20.541Z,3.3
2022-11-28T09:28:19.794Z,3.4
2022-11-28T09:29:19.734Z,3.4
2022-11-28T09:30:20.288Z,3.3
2022-11-28T09:31:20.682Z,3.3
2022-11-28T09:32:20.678Z,3.3
2022-11-28T09:33:20.079Z,3.3
2022-11-28T09:34:20.640Z,3.3
2022-11-28T09:35:19.901Z,3.4
2022-11-28T09:36:20.425Z,3.4
2022-11-28T09:37:20.295Z,3.4
2022-11-28T09:38:19.772Z,3.4
2022-11-28T09:39:20.226Z,3.4
2022-11-28T09:40:20.572Z,3.3
2022-11-28T09:41:20.028Z,3.3
2022-11-28T09:42:19.948Z,3.4
2022-11-28T09:43:19.463Z,3.4
2022-11-28T09:44:20.306Z,3.4
2022-11-28T09:45:20.791Z,3.4
2022-11-28T09:46:20.505Z,3.4
2022-11-28T09:47:20.044Z,3.4
2022-11-28T09:48:20.591Z,3
2022-11-28T09:49:19.809Z,3
2022-11-28T09:50:20.563Z,3.4
2022-11-28T09:51:19.889Z,3.4
2022-11-28T09:52:20.118Z,3.4
2022-11-28T09:53:20.061Z,3.4
2022-11-28T09:54:19.932Z,3.5
2022-11-28T09:55:20.277Z,3.4
2022-11-28T09:56:20.674Z,3.4
2022-11-28T09:57:19.932Z,3.5
2022-11-28T09:58:20.516Z,3.5
2022-11-28T09:59:20.783Z,3.6
2022-11-28T10:00:20.755Z,3.5
2022-11-28T10:01:20.338Z,3.6
2022-11-28T10:02:19.823Z,3.5
2022-11-28T10:03:20.079Z,3.5
2022-11-28T10:04:20.986Z,3.6
2022-11-28T10:05:20.639Z,3.6
2022-11-28T10:06:20.276Z,3.6
2022-11-28T10:07:20.792Z,3.6
2022-11-28T10:08:20.309Z,3.6
2022-11-28T10:09:20.156Z,3
2022-11-28T10:10:20.696Z,3.6
2022-11-28T10:11:20.567Z,3.6
2022-11-28T10:12:19.104Z,3.7
2022-11-28T10:13:18.792Z,3.7
2022-11-28T10:14:20.279Z,3.6
2022-11-28T10:15:20.699Z,3.6
2022-11-28T10:16:20.938Z,3.7
2022-11-28T10:17:20.274Z,3.8
2022-11-28T10:18:20.382Z,3.7
2022-11-28T10:19:58.102Z,3.8
2022-11-28T10:20:20.749Z,3
2022-11-28T10:21:19.929Z,3.8
2022-11-28T10:22:20.474Z,3.8
2022-11-28T10:23:19.359Z,3.8
2022-11-28T10:24:20.375Z,3.9
2022-11-28T10:25:20.775Z,4
2022-11-28T10:26:20.083Z,4
2022-11-28T10:27:26.992Z,3
2022-11-28T10:28:20.277Z,4
2022-11-28T10:29:20.586Z,4
2022-11-28T10:30:20.341Z,4
2022-11-28T10:31:20.394Z,4
2022-11-28T10:32:20.461Z,4.1
2022-11-28T10:33:20.263Z,4.1
2022-11-28T10:34:20.265Z,4.1
2022-11-28T10:35:21.753Z,4.1
2022-11-28T10:36:20.310Z,4.1
2022-11-28T10:37:20.630Z,4.1
2022-11-28T10:38:20.620Z,4.2
2022-11-28T10:39:20.077Z,4.2
2022-11-28T10:40:20.473Z,4.2
2022-11-28T10:41:20.408Z,4.2
2022-11-28T10:42:19.150Z,4.2
2022-11-28T10:43:20.211Z,4.3
2022-11-28T10:44:25.658Z,4
2022-11-28T10:45:19.789Z,4.3
2022-11-28T10:46:20.405Z,4.3
2022-11-28T10:47:20.200Z,4.3
2022-11-28T10:48:49.890Z,4.4
2022-11-28T10:49:20.372Z,4.4
2022-11-28T10:50:20.735Z,4.4
2022-11-28T10:51:20.350Z,4
2022-11-28T10:52:20.699Z,4.4
2022-11-28T10:53:20.179Z,4.4
2022-11-28T10:54:20.013Z,4.4
2022-11-28T10:55:20.214Z,4.4
2022-11-28T10:56:20.652Z,4.4
2022-11-28T10:57:20.026Z,4.4
2022-11-28T10:58:20.397Z,4.4
2022-11-28T10:59:20.347Z,4.4
2022-11-28T11:00:20.627Z,4.4
2022-11-28T11:01:20.494Z,4.4
2022-11-28T11:02:20.596Z,4.4
2022-11-28T11:03:19.860Z,4.4
2022-11-28T11:04:20.612Z,4.5
2022-11-28T11:05:19.800Z,4.5
2022-11-28T11:06:20.108Z,4.5
2022-11-28T11:07:31.491Z,4.5
2022-11-28T11:08:19.245Z,4.5
2022-11-28T11:09:19.723Z,4.5
2022-11-28T11:10:18.869Z,4.5
2022-11-28T11:11:20.093Z,4.5
2022-11-28T11:12:20.410Z,4.5
2022-11-28T11:13:20.587Z,4.4
2022-11-28T11:14:20.095Z,4.5
2022-11-28T11:15:20.866Z,4.5
2022-11-28T11:16:20.925Z,4.5
2022-11-28T11:17:20.024Z,4.5
2022-11-28T11:18:20.605Z,4.6
2022-11-28T11:19:20.426Z,4.5
2022-11-28T11:20:20.736Z,4.5
2022-11-28T11:21:20.229Z,4.5
2022-11-28T11:22:20.562Z,4.6
2022-11-28T11:23:20.581Z,4.6
2022-11-28T11:24:19.830Z,4.6
2022-11-28T11:25:20.046Z,4.7
2022-11-28T11:26:20.891Z,4.7
2022-11-28T11:27:20.237Z,4.7
2022-11-28T11:28:20.609Z,4.7
2022-11-28T11:29:19.978Z,4.8
2022-11-28T11:30:20.225Z,4.8
2022-11-28T11:31:20.674Z,4
2022-11-28T11:32:19.831Z,4.6
2022-11-28T11:33:19.993Z,4.6
2022-11-28T11:34:20.702Z,4.6
2022-11-28T11:35:20.235Z,4.7
2022-11-28T11:36:20.772Z,4.7
2022-11-28T11:37:20.280Z,4.7
2022-11-28T11:38:20.675Z,4.6
2022-11-28T11:39:20.220Z,4.7
2022-11-28T11:40:19.816Z,4.7
2022-11-28T11:41:20.134Z,4
2022-11-28T11:42:20.854Z,4
2022-11-28T11:43:20.375Z,4.7
2022-11-28T11:44:19.931Z,4.6
2022-11-28T11:45:20.313Z,4.7
2022-11-28T11:46:20.457Z,4.7
2022-11-28T11:47:19.937Z,4.8
2022-11-28T11:48:20.760Z,4.8
2022-11-28T11:49:20.170Z,4.8
2022-11-28T11:50:20.324Z,4.8
2022-11-28T11:51:20.723Z,4.8
2022-11-28T11:52:20.118Z,4.8
2022-11-28T11:53:20.048Z,4.8
2022-11-28T11:54:20.441Z,5
2022-11-28T11:55:20.323Z,5
2022-11-28T11:56:19.833Z,5
2022-11-28T11:57:37.318Z,4.8
2022-11-28T11:58:20.593Z,4.8
2022-11-28T11:59:20.244Z,4.8
2022-11-28T12:00:20.668Z,4.8
2022-11-28T12:01:20.662Z,4.8
2022-11-28T12:02:20.164Z,4.9
2022-11-28T12:03:20.326Z,4.9
2022-11-28T12:04:55.091Z,5
2022-11-28T12:05:20.369Z,4.8
2022-11-28T12:06:20.779Z,4.8
2022-11-28T12:07:20.339Z,5
2022-11-28T12:08:19.091Z,5
2022-11-28T12:09:19.555Z,5
2022-11-28T12:10:18.930Z,4.9
2022-11-28T12:11:20.268Z,5
2022-11-28T12:12:20.665Z,5
2022-11-28T12:13:20.173Z,5
2022-11-28T12:14:19.868Z,5
2022-11-28T12:15:19.634Z,5
2022-11-28T12:16:20.632Z,5
2022-11-28T12:17:58.540Z,5
2022-11-28T12:18:19.701Z,5
2022-11-28T12:19:20.493Z,5
2022-11-28T12:20:19.948Z,5
2022-11-28T12:21:20.229Z,5
2022-11-28T12:22:20.744Z,5
2022-11-28T12:23:21.917Z,5
2022-11-28T12:24:20.344Z,5
2022-11-28T12:25:20.667Z,5
2022-11-28T12:26:20.152Z,5
2022-11-28T12:27:20.036Z,5
2022-11-28T12:28:20.705Z,5
2022-11-28T12:30:20.784Z,5
2022-11-28T12:31:20.171Z,5
2022-11-28T12:32:20.605Z,5
2022-11-28T12:33:20.018Z,5
2022-11-28T12:34:20.763Z,5
2022-11-28T12:35:20.016Z,5
2022-11-28T12:36:19.832Z,4.9
2022-11-28T12:37:20.348Z,4.9
2022-11-28T12:38:20.014Z,4.9
2022-11-28T12:39:20.301Z,4.9
2022-11-28T12:40:20.282Z,5
2022-11-28T12:41:20.727Z,5
2022-11-28T12:42:20.212Z,5
2022-11-28T12:43:20.612Z,5
2022-11-28T12:44:19.774Z,5
2022-11-28T12:45:20.338Z,5
2022-11-28T12:46:20.250Z,4.9
2022-11-28T12:47:20.116Z,5
2022-11-28T12:48:20.497Z,4.9
2022-11-28T12:49:20.733Z,4.9
2022-11-28T12:50:20.762Z,4.9
2022-11-28T12:51:20.360Z,4.9
2022-11-28T12:52:19.826Z,4.9
2022-11-28T12:53:20.299Z,5
2022-11-28T12:54:20.561Z,4.9
2022-11-28T12:55:19.847Z,4.8
2022-11-28T12:56:20.215Z,5
2022-11-28T12:57:20.629Z,4.8
2022-11-28T12:58:19.854Z,4.8
2022-11-28T12:59:20.667Z,4.8
2022-11-28T13:00:20.304Z,4.8
2022-11-28T13:01:20.011Z,4.8
2022-11-28T13:02:20.543Z,4.8
2022-11-28T13:03:20.996Z,4.8
2022-11-28T13:04:20.068Z,4.8
2022-11-28T13:05:20.547Z,4.8
2022-11-28T13:06:19.978Z,4.8
2022-11-28T13:07:20.610Z,4.8
2022-11-28T13:08:20.212Z,4.7
2022-11-28T13:09:20.670Z,4.8
2022-11-28T13:10:20.132Z,4.7
2022-11-28T13:11:20.500Z,4.7
2022-11-28T13:12:19.829Z,4.7
2022-11-28T13:13:19.063Z,4.8
2022-11-28T13:14:20.583Z,4.8
2022-11-28T13:15:20.071Z,4.8
2022-11-28T13:16:27.612Z,5
2022-11-28T13:17:19.936Z,4.8
2022-11-28T13:18:20.128Z,4.8
2022-11-28T13:19:20.634Z,4.8
2022-11-28T13:20:20.178Z,4.8
2022-11-28T13:21:20.690Z,4.8
2022-11-28T13:22:20.313Z,4.8
2022-11-28T13:23:19.942Z,4.8
2022-11-28T13:24:20.673Z,4.8
2022-11-28T13:25:20.098Z,4.8
2022-11-28T13:26:20.751Z,4.8
2022-11-28T13:27:19.958Z,4.8
2022-11-28T13:28:20.072Z,5
2022-11-28T13:29:20.458Z,4.8
2022-11-28T13:30:20.042Z,4.8
2022-11-28T13:31:20.506Z,5
2022-11-28T13:32:20.774Z,4.7
2022-11-28T13:33:20.257Z,4.7
2022-11-28T13:34:20.135Z,4.7
2022-11-28T13:35:20.658Z,4.8
2022-11-28T13:38:35.945Z,4
2022-11-28T13:39:08.069Z,4.8
2022-11-28T13:39:12.211Z,4.8
2022-11-28T13:40:20.125Z,4.8
2022-11-28T13:43:03.784Z,4
2022-11-28T13:43:10.456Z,4.8
2022-11-28T13:44:19.829Z,4.8
2022-11-28T13:45:20.222Z,4.7
2022-11-28T13:46:20.132Z,4.7
2022-11-28T13:47:20.733Z,4.7
2022-11-28T13:48:19.647Z,4.7
2022-11-28T13:49:24.710Z,4.6
2022-11-28T13:50:20.413Z,4.6
2022-11-28T13:51:32.885Z,4.7
2022-11-28T13:52:20.215Z,4.7
2022-11-28T13:53:20.707Z,4.7
2022-11-28T13:54:20.781Z,4.7
2022-11-28T13:55:22.134Z,4.6
2022-11-28T13:56:22.094Z,4.6
2022-11-28T13:57:21.422Z,4.6
2022-11-28T13:58:22.189Z,4.6